createdAt,value
2019-02-21T00:02:04.947Z,15.40
2019-02-21T00:04:34.216Z,11.97
2019-02-21T00:07:03.448Z,14.93
2019-02-21T00:09:32.778Z,12.63
2019-02-21T00:12:02.618Z,17.90
2019-02-21T00:14:31.963Z,16.13
2019-02-21T00:17:01.190Z,17.67
2019-02-21T00:19:30.478Z,14.33
2019-02-21T00:21:59.712Z,19.13
2019-02-21T00:24:29.042Z,20.67
2019-02-21T00:26:58.207Z,20.40
2019-02-21T00:29:27.466Z,10.73
2019-02-21T00:31:56.625Z,16.93
2019-02-21T00:34:25.884Z,21.70
2019-02-21T00:36:55.043Z,13.43
2019-02-21T00:39:24.238Z,16.27
2019-02-21T00:41:53.417Z,19.77
2019-02-21T00:44:22.603Z,15.43
2019-02-21T00:46:51.776Z,17.33
2019-02-21T00:49:21.007Z,15.93
2019-02-21T00:51:50.324Z,14.70
2019-02-21T00:54:19.580Z,17.33
2019-02-21T00:56:48.939Z,18.37
2019-02-21T00:59:18.223Z,13.50
2019-02-21T01:01:47.408Z,25.57
2019-02-21T01:04:16.647Z,19.20
2019-02-21T01:06:45.922Z,19.60
2019-02-21T01:09:15.278Z,15.87
2019-02-21T01:11:44.463Z,16.93
2019-02-21T01:14:13.632Z,26.33
2019-02-21T01:16:42.902Z,19.50
2019-02-21T01:19:12.263Z,19.10
2019-02-21T01:21:41.577Z,21.07
2019-02-21T01:24:11.351Z,19.87
2019-02-21T01:26:40.535Z,20.47
2019-02-21T01:29:09.812Z,21.37
2019-02-21T01:31:39.087Z,22.20
2019-02-21T01:34:08.249Z,25.80
2019-02-21T01:36:37.588Z,25.43
2019-02-21T01:39:07.403Z,22.17
2019-02-21T01:41:36.687Z,24.20
2019-02-21T01:44:06.080Z,24.87
2019-02-21T01:46:35.346Z,22.97
2019-02-21T01:49:04.578Z,26.80
2019-02-21T01:51:33.793Z,22.80
2019-02-21T01:54:03.035Z,17.67
2019-02-21T01:56:32.464Z,25.13
2019-02-21T01:59:01.703Z,24.70
2019-02-21T02:01:30.956Z,26.90
2019-02-21T02:04:00.276Z,23.17
2019-02-21T02:06:29.684Z,25.13
2019-02-21T02:08:58.868Z,23.73
2019-02-21T02:11:28.032Z,23.73
2019-02-21T02:13:57.372Z,24.50
2019-02-21T02:16:26.617Z,23.83
2019-02-21T02:18:55.878Z,24.23
2019-02-21T02:21:25.048Z,23.10
2019-02-21T02:23:54.239Z,25.17
2019-02-21T02:26:23.467Z,23.43
2019-02-21T02:28:52.718Z,27.23
2019-02-21T02:31:23.685Z,24.37
2019-02-21T02:33:52.958Z,25.33
2019-02-21T02:36:22.115Z,23.57
2019-02-21T02:38:51.385Z,22.87
2019-02-21T02:41:20.680Z,23.67
2019-02-21T02:43:49.980Z,26.57
2019-02-21T02:46:19.215Z,24.30
2019-02-21T02:48:48.409Z,24.83
2019-02-21T02:51:17.668Z,23.83
2019-02-21T02:53:46.928Z,30.10
2019-02-21T02:56:16.198Z,29.80
2019-02-21T02:58:45.828Z,22.53
2019-02-21T03:01:15.173Z,28.07
2019-02-21T03:03:44.334Z,27.73
2019-02-21T03:06:13.674Z,30.97
2019-02-21T03:08:42.974Z,26.03
2019-02-21T03:11:12.310Z,29.50
2019-02-21T03:13:41.552Z,28.90
2019-02-21T03:16:10.902Z,30.90
2019-02-21T03:18:40.219Z,27.50
2019-02-21T03:21:09.559Z,28.50
2019-02-21T03:23:38.715Z,31.40
2019-02-21T03:26:07.991Z,28.60
2019-02-21T03:28:37.231Z,32.23
2019-02-21T03:31:06.518Z,29.60
2019-02-21T03:33:35.781Z,31.07
2019-02-21T03:36:05.068Z,30.73
2019-02-21T03:38:35.382Z,27.87
2019-02-21T03:41:05.143Z,28.27
2019-02-21T03:43:34.451Z,29.87
2019-02-21T03:46:03.717Z,28.37
2019-02-21T03:48:33.004Z,28.83
2019-02-21T03:51:02.303Z,24.73
2019-02-21T03:53:31.637Z,22.73
2019-02-21T03:56:00.896Z,25.03
2019-02-21T03:58:30.133Z,32.43
2019-02-21T04:00:59.400Z,25.20
2019-02-21T04:03:28.628Z,28.30
2019-02-21T04:05:57.799Z,27.60
2019-02-21T04:08:27.223Z,28.97
2019-02-21T04:10:56.525Z,31.00
2019-02-21T04:13:25.793Z,27.83
2019-02-21T04:15:55.100Z,25.97
2019-02-21T04:18:24.352Z,23.87
2019-02-21T04:20:53.518Z,31.77
2019-02-21T04:23:22.690Z,31.53
2019-02-21T04:25:51.928Z,31.80
2019-02-21T04:28:21.279Z,30.13
2019-02-21T04:30:50.522Z,28.93
2019-02-21T04:33:19.789Z,27.87
2019-02-21T04:35:49.104Z,31.53
2019-02-21T04:38:18.381Z,29.53
2019-02-21T04:40:47.700Z,34.03
2019-02-21T04:43:17.029Z,34.23
2019-02-21T04:45:46.364Z,28.57
2019-02-21T04:48:15.709Z,29.63
2019-02-21T04:50:44.887Z,31.13
2019-02-21T04:53:15.277Z,31.23
2019-02-21T04:55:44.597Z,36.63
2019-02-21T04:58:13.860Z,30.73
2019-02-21T05:00:43.107Z,30.33
2019-02-21T05:03:12.292Z,30.73
2019-02-21T05:05:41.530Z,32.70
2019-02-21T05:08:10.715Z,32.10
2019-02-21T05:10:39.892Z,30.40
2019-02-21T05:13:09.147Z,33.83
2019-02-21T05:15:38.562Z,32.17
2019-02-21T05:18:07.827Z,36.67
2019-02-21T05:20:37.054Z,34.70
2019-02-21T05:23:06.290Z,36.03
2019-02-21T05:25:35.548Z,35.17
2019-02-21T05:28:22.474Z,37.30
2019-02-21T05:30:53.487Z,35.17
2019-02-21T05:33:57.182Z,40.73
2019-02-21T05:36:48.444Z,41.27
2019-02-21T05:39:27.254Z,38.40
2019-02-21T05:42:14.254Z,33.13
2019-02-21T05:44:48.800Z,36.23
2019-02-21T05:47:37.837Z,36.17
2019-02-21T05:50:24.790Z,33.20
2019-02-21T05:53:24.971Z,34.27
2019-02-21T05:56:11.499Z,33.83
2019-02-21T05:58:59.211Z,36.30
2019-02-21T06:01:46.450Z,33.80
2019-02-21T06:04:22.279Z,35.83
2019-02-21T06:07:28.727Z,38.60
2019-02-21T06:10:09.847Z,35.63
2019-02-21T06:12:48.338Z,39.43
2019-02-21T06:15:42.470Z,34.03
2019-02-21T06:18:25.943Z,33.97
2019-02-21T06:21:15.357Z,36.13
2019-02-21T06:23:52.406Z,36.57
2019-02-21T06:26:55.836Z,40.37
2019-02-21T06:29:29.099Z,35.67
2019-02-21T06:31:58.427Z,36.13
2019-02-21T06:34:27.718Z,40.73
2019-02-21T06:36:56.911Z,35.97
2019-02-21T06:39:26.069Z,39.17
2019-02-21T06:41:59.763Z,38.30
2019-02-21T06:44:26.227Z,39.40
2019-02-21T06:46:55.518Z,35.73
2019-02-21T06:49:32.097Z,38.07
2019-02-21T06:51:55.752Z,42.60
2019-02-21T06:54:24.930Z,40.07
2019-02-21T06:56:54.248Z,42.23
2019-02-21T06:59:23.811Z,42.03
2019-02-21T07:01:53.200Z,39.13
2019-02-21T07:04:22.433Z,39.50
2019-02-21T07:06:51.796Z,47.30
2019-02-21T07:09:21.040Z,50.27
2019-02-21T07:11:50.614Z,55.53
2019-02-21T07:14:19.861Z,56.37
2019-02-21T07:16:49.087Z,45.13
2019-02-21T07:19:18.350Z,39.00
2019-02-21T07:21:47.570Z,43.20
2019-02-21T07:24:18.173Z,41.37
2019-02-21T07:26:47.507Z,38.13
2019-02-21T07:29:16.775Z,36.33
2019-02-21T07:31:46.011Z,35.93
2019-02-21T07:34:15.200Z,40.47
2019-02-21T07:36:44.441Z,43.83
2019-02-21T07:39:17.439Z,37.57
2019-02-21T07:41:44.584Z,36.93
2019-02-21T07:44:13.858Z,41.77
2019-02-21T07:46:43.009Z,38.10
2019-02-21T07:49:12.251Z,39.83
2019-02-21T07:51:41.669Z,43.27
2019-02-21T07:54:10.964Z,42.87
2019-02-21T07:56:42.306Z,43.90
2019-02-21T07:59:12.134Z,38.63
2019-02-21T08:01:41.607Z,43.63
2019-02-21T08:04:10.791Z,46.13
2019-02-21T08:06:40.020Z,48.30
2019-02-21T08:09:09.617Z,45.53
2019-02-21T08:11:38.848Z,48.10
2019-02-21T08:14:08.107Z,73.07
2019-02-21T08:16:37.337Z,57.87
2019-02-21T08:19:06.613Z,65.47
2019-02-21T08:21:35.948Z,42.87
2019-02-21T08:24:05.247Z,44.77
2019-02-21T08:26:34.509Z,33.73
2019-02-21T08:29:06.031Z,43.30
2019-02-21T08:31:34.729Z,33.70
2019-02-21T08:34:10.743Z,47.00
2019-02-21T08:36:39.999Z,30.40
2019-02-21T08:39:10.494Z,46.47
2019-02-21T08:41:39.985Z,42.97
2019-02-21T08:44:09.215Z,32.97
2019-02-21T08:46:38.400Z,45.43
2019-02-21T08:49:07.635Z,34.43
2019-02-21T08:51:36.933Z,43.30
2019-02-21T08:54:06.260Z,34.20
2019-02-21T08:56:35.587Z,48.93
2019-02-21T08:59:04.891Z,44.30
2019-02-21T09:01:34.139Z,34.63
2019-02-21T09:04:10.512Z,48.20
2019-02-21T09:06:34.323Z,31.87
2019-02-21T09:09:04.307Z,52.37
2019-02-21T09:11:33.739Z,35.63
2019-02-21T09:14:02.996Z,44.97
2019-02-21T09:16:32.347Z,36.40
2019-02-21T09:19:01.588Z,35.73
2019-02-21T09:21:30.931Z,32.57
2019-02-21T09:24:00.240Z,28.33
2019-02-21T09:26:29.517Z,31.82
2019-02-21T09:28:58.912Z,33.53
2019-02-21T09:31:28.283Z,30.10
2019-02-21T09:33:57.512Z,32.80
2019-02-21T09:36:26.762Z,40.60
2019-02-21T09:38:55.928Z,32.17
2019-02-21T09:41:25.163Z,45.73
2019-02-21T09:43:54.419Z,35.73
2019-02-21T09:46:23.655Z,43.40
2019-02-21T09:48:52.911Z,34.20
2019-02-21T09:51:22.171Z,47.27
2019-02-21T09:53:51.352Z,32.60
2019-02-21T09:56:30.027Z,39.10
2019-02-21T09:58:51.635Z,41.63
2019-02-21T10:01:20.838Z,31.57
2019-02-21T10:03:50.113Z,31.00
2019-02-21T10:06:19.278Z,40.50
2019-02-21T10:08:48.463Z,30.17
2019-02-21T10:11:17.700Z,31.67
2019-02-21T10:13:46.967Z,32.43
2019-02-21T10:16:16.152Z,29.17
2019-02-21T10:18:45.408Z,34.70
2019-02-21T10:21:14.764Z,27.47
2019-02-21T10:23:44.049Z,29.50
2019-02-21T10:26:13.278Z,25.87
2019-02-21T10:28:44.967Z,27.97
2019-02-21T10:31:13.516Z,29.80
2019-02-21T10:33:46.812Z,27.87
2019-02-21T10:36:13.696Z,31.63
2019-02-21T10:38:42.960Z,27.13
2019-02-21T10:41:12.122Z,29.27
2019-02-21T10:43:41.363Z,30.20
2019-02-21T10:46:10.552Z,26.33
2019-02-21T10:48:39.897Z,27.60
2019-02-21T10:51:09.347Z,28.53
2019-02-21T10:53:38.519Z,27.63
2019-02-21T10:56:07.772Z,28.37
2019-02-21T10:58:37.002Z,25.47
2019-02-21T11:01:06.468Z,27.43
2019-02-21T11:03:35.783Z,26.10
2019-02-21T11:06:05.153Z,26.63
2019-02-21T11:08:34.373Z,31.03
2019-02-21T11:11:03.651Z,26.47
2019-02-21T11:13:32.884Z,26.50
2019-02-21T11:16:02.105Z,28.70
2019-02-21T11:18:31.283Z,27.53
2019-02-21T11:21:00.548Z,27.50
2019-02-21T11:23:29.784Z,27.73
2019-02-21T11:25:59.043Z,28.47
2019-02-21T11:28:28.314Z,28.50
2019-02-21T11:30:57.640Z,28.40
2019-02-21T11:33:26.875Z,30.77
2019-02-21T11:35:56.061Z,27.83
2019-02-21T11:38:25.211Z,32.30
2019-02-21T11:40:54.409Z,30.07
2019-02-21T11:43:23.645Z,29.63
2019-02-21T11:45:55.214Z,27.97
2019-02-21T11:48:23.732Z,32.10
2019-02-21T11:50:53.027Z,30.67
2019-02-21T11:53:22.275Z,33.43
2019-02-21T11:55:51.536Z,31.03
2019-02-21T11:58:20.779Z,32.50
2019-02-21T12:00:50.048Z,33.73
2019-02-21T12:03:21.269Z,36.20
2019-02-21T12:05:50.207Z,32.50
2019-02-21T12:08:19.399Z,33.80
2019-02-21T12:10:50.895Z,33.67
2019-02-21T12:13:19.630Z,31.07
2019-02-21T12:15:48.841Z,33.23
2019-02-21T12:18:18.111Z,32.90
2019-02-21T12:20:47.275Z,31.97
2019-02-21T12:23:17.835Z,32.33
2019-02-21T12:25:48.136Z,31.87
2019-02-21T12:28:17.327Z,32.90
2019-02-21T12:30:47.418Z,33.27
2019-02-21T12:33:16.603Z,30.53
2019-02-21T12:35:45.843Z,30.57
2019-02-21T12:38:15.116Z,33.30
2019-02-21T12:40:44.357Z,32.83
2019-02-21T12:43:13.629Z,30.87
2019-02-21T12:45:42.796Z,30.73
2019-02-21T12:48:11.984Z,33.03
2019-02-21T12:50:44.318Z,33.93
2019-02-21T12:53:12.307Z,32.50
2019-02-21T12:55:41.553Z,35.77
2019-02-21T12:58:10.740Z,33.00
2019-02-21T13:00:39.978Z,30.80
2019-02-21T13:03:09.429Z,34.30
2019-02-21T13:05:41.322Z,35.20
2019-02-21T13:08:09.580Z,37.27
2019-02-21T13:10:38.819Z,30.53
2019-02-21T13:13:08.024Z,30.70
2019-02-21T13:15:37.332Z,30.97
2019-02-21T13:18:15.318Z,30.80
2019-02-21T13:20:37.543Z,28.60
2019-02-21T13:23:06.734Z,34.67
2019-02-21T13:25:35.987Z,30.93
2019-02-21T13:28:05.227Z,30.97
2019-02-21T13:30:34.497Z,32.40
2019-02-21T13:33:03.737Z,31.53
2019-02-21T13:35:33.014Z,30.30
2019-02-21T13:38:02.372Z,31.53
2019-02-21T13:40:31.667Z,33.87
2019-02-21T13:43:00.932Z,32.17
2019-02-21T13:45:30.203Z,34.33
2019-02-21T13:47:59.444Z,34.47
2019-02-21T13:50:28.719Z,34.03
2019-02-21T13:52:58.070Z,32.63
2019-02-21T13:55:27.351Z,32.23
2019-02-21T13:57:56.651Z,36.30
2019-02-21T14:00:25.920Z,35.73
2019-02-21T14:02:55.153Z,33.97
2019-02-21T14:05:24.452Z,34.60
2019-02-21T14:07:53.833Z,31.73
2019-02-21T14:10:23.096Z,32.33
2019-02-21T14:12:52.337Z,31.23
2019-02-21T14:15:23.199Z,32.20
2019-02-21T14:17:52.471Z,36.00
2019-02-21T14:20:21.814Z,31.80
2019-02-21T14:22:51.051Z,33.83
2019-02-21T14:25:20.387Z,31.20
2019-02-21T14:27:49.628Z,34.37
2019-02-21T14:30:19.016Z,32.07
2019-02-21T14:32:48.179Z,32.03
2019-02-21T14:35:17.845Z,31.67
2019-02-21T14:37:47.174Z,34.57
2019-02-21T14:40:16.439Z,33.90
2019-02-21T14:42:45.636Z,55.80
2019-02-21T14:45:16.336Z,37.73
2019-02-21T14:47:45.664Z,34.93
2019-02-21T14:50:16.273Z,37.13
2019-02-21T14:52:45.523Z,32.70
2019-02-21T14:55:15.241Z,36.37
2019-02-21T14:57:44.587Z,34.27
2019-02-21T15:00:18.893Z,37.40
2019-02-21T15:02:48.352Z,37.73
2019-02-21T15:05:18.476Z,33.67
2019-02-21T15:07:47.835Z,35.47
2019-02-21T15:10:17.282Z,35.10
2019-02-21T15:12:46.616Z,34.30
2019-02-21T15:15:16.720Z,36.23
2019-02-21T15:17:46.793Z,41.07
2019-02-21T15:20:16.934Z,44.90
2019-02-21T15:22:46.270Z,41.83
2019-02-21T15:25:15.584Z,38.57
2019-02-21T15:27:44.881Z,35.37
2019-02-21T15:30:16.082Z,35.27
2019-02-21T15:32:45.411Z,42.97
2019-02-21T15:35:14.843Z,43.00
2019-02-21T15:37:45.032Z,40.83
2019-02-21T15:40:14.849Z,36.50
2019-02-21T15:42:44.188Z,39.87
2019-02-21T15:45:22.892Z,58.33
2019-02-21T15:47:46.759Z,48.17
2019-02-21T15:50:16.054Z,41.63
2019-02-21T15:52:45.477Z,62.37
2019-02-21T15:55:15.327Z,50.00
2019-02-21T15:57:44.690Z,49.73
2019-02-21T16:00:16.270Z,42.90
2019-02-21T16:02:45.555Z,103.57
2019-02-21T16:05:14.725Z,58.60
2019-02-21T16:07:44.123Z,42.53
2019-02-21T16:10:15.610Z,57.10
2019-02-21T16:12:45.240Z,46.20
2019-02-21T16:15:16.433Z,44.60
2019-02-21T16:17:45.840Z,55.90
2019-02-21T16:20:15.444Z,45.47
2019-02-21T16:22:45.049Z,45.97
2019-02-21T16:25:16.530Z,44.83
2019-02-21T16:27:45.883Z,42.40
2019-02-21T16:30:15.616Z,42.60
2019-02-21T16:32:45.028Z,44.47
2019-02-21T16:35:14.276Z,44.23
2019-02-21T16:37:43.502Z,43.57
2019-02-21T16:40:13.584Z,115.80
2019-02-21T16:42:42.776Z,64.93
2019-02-21T16:45:13.126Z,50.63
2019-02-21T16:47:42.295Z,45.80
2019-02-21T16:50:12.562Z,42.13
2019-02-21T16:52:41.783Z,42.03
2019-02-21T16:55:13.286Z,43.33
2019-02-21T16:57:42.445Z,40.40
2019-02-21T17:00:12.804Z,40.37
2019-02-21T17:02:42.052Z,41.90
2019-02-21T17:05:11.759Z,44.07
2019-02-21T17:07:41.073Z,41.43
2019-02-21T17:10:10.931Z,45.80
2019-02-21T17:12:40.176Z,41.53
2019-02-21T17:15:10.830Z,43.23
2019-02-21T17:17:40.145Z,41.77
2019-02-21T17:20:11.266Z,43.83
2019-02-21T17:22:40.435Z,44.30
2019-02-21T17:25:10.520Z,42.50
2019-02-21T17:27:39.679Z,43.87
2019-02-21T17:30:10.036Z,42.07
2019-02-21T17:32:39.286Z,39.40
2019-02-21T17:35:08.723Z,42.40
2019-02-21T17:37:37.973Z,42.33
2019-02-21T17:40:09.320Z,44.63
2019-02-21T17:42:38.492Z,42.00
2019-02-21T17:45:08.567Z,41.43
2019-02-21T17:47:37.799Z,42.90
2019-02-21T17:50:08.020Z,42.67
2019-02-21T17:52:37.297Z,43.13
2019-02-21T17:55:07.092Z,43.93
2019-02-21T17:57:37.016Z,46.17
2019-02-21T18:00:09.353Z,45.13
2019-02-21T18:02:38.620Z,42.10
2019-02-21T18:05:08.389Z,42.37
2019-02-21T18:07:37.596Z,43.10
2019-02-21T18:10:08.826Z,44.73
2019-02-21T18:12:38.094Z,49.43
2019-02-21T18:15:07.945Z,51.03
2019-02-21T18:17:37.141Z,45.40
2019-02-21T18:20:07.128Z,47.77
2019-02-21T18:22:36.448Z,45.60
2019-02-21T18:25:08.378Z,46.70
2019-02-21T18:27:37.718Z,44.53
2019-02-21T18:30:08.237Z,49.43
2019-02-21T18:32:37.552Z,45.40
2019-02-21T18:35:07.318Z,40.47
2019-02-21T18:37:46.644Z,34.80
2019-02-21T18:40:16.992Z,38.27
2019-02-21T18:42:40.512Z,41.07
2019-02-21T18:45:10.083Z,38.70
2019-02-21T18:47:39.340Z,32.53
2019-02-21T18:50:09.568Z,32.47
2019-02-21T18:52:38.996Z,31.70
2019-02-21T18:55:08.263Z,33.73
2019-02-21T18:57:37.914Z,33.17
2019-02-21T19:00:09.330Z,70.87
2019-02-21T19:02:38.691Z,69.50
2019-02-21T19:05:08.188Z,62.70
2019-02-21T19:07:37.377Z,51.87
2019-02-21T19:10:08.376Z,54.70
2019-02-21T19:12:37.630Z,48.87
2019-02-21T19:15:07.731Z,42.23
2019-02-21T19:17:37.481Z,41.27
2019-02-21T19:20:08.530Z,31.83
2019-02-21T19:22:38.217Z,31.87
2019-02-21T19:25:09.049Z,31.17
2019-02-21T19:27:38.695Z,29.93
2019-02-21T19:30:13.912Z,30.53
2019-02-21T19:32:43.628Z,32.93
2019-02-21T19:35:13.149Z,33.03
2019-02-21T19:37:42.595Z,30.13
2019-02-21T19:40:12.480Z,28.97
2019-02-21T19:42:41.953Z,29.10
2019-02-21T19:45:11.698Z,25.87
2019-02-21T19:47:41.145Z,28.80
2019-02-21T19:50:10.864Z,26.80
2019-02-21T19:52:40.641Z,27.80
2019-02-21T19:55:10.566Z,24.70
2019-02-21T19:57:40.204Z,28.27
2019-02-21T20:00:12.445Z,27.67
2019-02-21T20:02:42.277Z,29.00
2019-02-21T20:05:12.218Z,32.10
2019-02-21T20:07:41.852Z,29.80
2019-02-21T20:10:11.455Z,25.87
2019-02-21T20:12:41.192Z,34.67
2019-02-21T20:15:10.989Z,33.63
2019-02-21T20:17:40.712Z,30.67
2019-02-21T20:20:11.323Z,27.00
2019-02-21T20:22:41.103Z,28.70
2019-02-21T20:25:11.154Z,29.13
2019-02-21T20:27:40.858Z,27.80
2019-02-21T20:30:12.764Z,28.63
2019-02-21T20:32:42.913Z,28.27
2019-02-21T20:35:12.823Z,30.37
2019-02-21T20:37:42.652Z,30.57
2019-02-21T20:40:12.360Z,31.13
2019-02-21T20:42:42.124Z,33.87
2019-02-21T20:45:11.407Z,34.87
2019-02-21T20:47:40.782Z,33.57
2019-02-21T20:50:10.239Z,34.97
2019-02-21T20:52:39.530Z,45.97
2019-02-21T20:55:09.031Z,38.43
2019-02-21T20:57:38.300Z,36.77
2019-02-21T21:00:09.302Z,32.40
2019-02-21T21:02:38.488Z,28.20
2019-02-21T21:05:07.838Z,27.17
2019-02-21T21:07:37.028Z,23.63
2019-02-21T21:10:09.208Z,23.70
2019-02-21T21:12:38.383Z,28.43
2019-02-21T21:15:09.601Z,27.33
2019-02-21T21:17:39.007Z,37.03
2019-02-21T21:20:16.678Z,29.67
2019-02-21T21:22:40.522Z,38.97
2019-02-21T21:25:11.506Z,46.10
2019-02-21T21:27:40.772Z,45.23
2019-02-21T21:30:11.843Z,49.70
2019-02-21T21:32:41.127Z,34.50
2019-02-21T21:35:10.644Z,36.10
2019-02-21T21:37:39.984Z,32.23
2019-02-21T21:40:11.287Z,71.17
2019-02-21T21:42:40.567Z,47.37
2019-02-21T21:45:12.468Z,53.77
2019-02-21T21:47:41.987Z,49.57
2019-02-21T21:50:12.698Z,50.73
2019-02-21T21:52:41.959Z,46.33
2019-02-21T21:55:11.215Z,46.90
2019-02-21T21:57:40.367Z,40.57
2019-02-21T22:00:13.187Z,41.80
2019-02-21T22:02:42.502Z,39.83
2019-02-21T22:05:11.764Z,43.60
2019-02-21T22:07:40.999Z,46.63
2019-02-21T22:10:11.473Z,40.77
2019-02-21T22:12:40.775Z,40.80
2019-02-21T22:15:10.812Z,39.67
2019-02-21T22:17:42.111Z,41.90
2019-02-21T22:20:11.029Z,38.50
2019-02-21T22:22:40.182Z,38.83
2019-02-21T22:25:10.258Z,35.27
2019-02-21T22:27:39.547Z,37.03
2019-02-21T22:30:10.628Z,37.57
2019-02-21T22:32:39.783Z,38.23
2019-02-21T22:35:08.987Z,36.00
2019-02-21T22:37:38.220Z,38.10
2019-02-21T22:40:09.430Z,33.03
2019-02-21T22:42:38.748Z,36.50
2019-02-21T22:45:08.558Z,35.03
2019-02-21T22:47:37.812Z,35.00
2019-02-21T22:50:09.091Z,38.93
2019-02-21T22:52:38.279Z,36.33
2019-02-21T22:55:10.146Z,34.87
2019-02-21T22:57:39.229Z,34.80
2019-02-21T23:01:01.662Z,37.50
2019-02-21T23:03:37.203Z,36.97
2019-02-21T23:06:32.563Z,38.30
2019-02-21T23:09:01.899Z,35.77
2019-02-21T23:11:31.168Z,36.57
2019-02-21T23:14:00.403Z,36.40
2019-02-21T23:16:29.618Z,43.10
2019-02-21T23:18:58.919Z,37.27
2019-02-21T23:21:28.114Z,38.20
2019-02-21T23:23:57.345Z,41.20
2019-02-21T23:26:28.585Z,39.57
2019-02-21T23:28:57.500Z,41.20
2019-02-21T23:31:26.761Z,40.53
2019-02-21T23:33:58.163Z,41.60
2019-02-21T23:36:27.419Z,40.00
2019-02-21T23:38:56.572Z,38.03
2019-02-21T23:41:25.832Z,43.97
2019-02-21T23:43:55.071Z,37.87
2019-02-21T23:46:24.339Z,41.70
2019-02-21T23:48:53.580Z,40.10
2019-02-21T23:51:22.852Z,37.93
2019-02-21T23:54:02.533Z,38.40
2019-02-21T23:56:22.986Z,40.40
2019-02-21T23:58:52.244Z,36.80
